Fairplay, CO (80440)

11:59 PM MST on December 26, 2014 (GMT -0700)
Sun Mountain Subdivision | Change Station
CLOSE
Current Station
Personal Weather Station
Location: Fairplay, CO
Elevation: 11010 ft
Nearby Weather Stations

Elev 11010 ft 39.23 °N, 106.09 °W | Updated 11 minutes ago

Partly Cloudy
Partly Cloudy
-1.0 °F
Feels Like -1 °F
N
2.0
Wind Variable Wind from WNW

Today
High -- | Low -- °F
--% Chance of Precip.
Yesterday
High -- | Low -- °F
Precip. -- in
7:22 AM 4:47 PM
Waxing Crescent, 33% visible
Pressure 30.06 in
Visibility 10.0 miles
Clouds Mostly Cloudy 3000 ft
Windchill -1 °F
Dew Point -7 °F
Humidity 77%
Rainfall 0.00 in
Snow Depth Not available.
UV 0 out of 12
Pollen .10 out of 12
Air Quality Not available.
Flu Activity Not available.
METAR KLXV 270653Z AUTO 04005KT 10SM BKN030 M19/M23 A2986 RMK AO2 SLP178 T11941228 411001211

More Conditions Fewer Conditions

Pressure 30.06 in
Visibility 10.0 miles
Clouds Mostly Cloudy 3000 ft
Windchill -1 °F
Dew Point -7 °F
Humidity 77%
Rainfall 0.00 in
Snow Depth Not available.
UV 0 out of 12
Pollen .10 out of 12
Air Quality Not available.
Flu Activity Not available.
METAR KLXV 270653Z AUTO 04005KT 10SM BKN030 M19/M23 A2986 RMK AO2 SLP178 T11941228 411001211

More Conditions Fewer Conditions

10-Day Weather Forecast

Almanac

Astronomy

Dec. 26, 2014 Rise Set
Actual Time
Civil Twilight
Nautical Twilight
Astronomical Twilight
Moon
Length of Visible Light
Length of Day
Tomorrow will be .
, % of the Moon is Illuminated

Today's Extremes

State Highs State Lows

Community

WunderPhotos

Upload Photos

1,780,863 photos uploaded!

WunderBlogs® & News

Nearby

Air Quality

  Air Quality AQ Index Pollutant
Not available.

Snow Depth

Station Depth Elevation

Earthquake Activity

City Distance Mag. Time & Date
Minimum magnitude displayed is 2.5.

Coastal Water Temperatures

Place Temperature

Nearby Weather Stations